sensor_id;sensor_type;location;lat;lon;timestamp;pressure;altitude;pressure_sealevel;temperature;humidity
61039;BME280;46919;45.816;3.104;2023-03-15T00:00:05;97941.38;;;6.05;77.77
61039;BME280;46919;45.816;3.104;2023-03-15T00:02:32;97944.84;;;5.98;78.28
61039;BME280;46919;45.816;3.104;2023-03-15T00:04:57;97940.59;;;5.89;78.79
61039;BME280;46919;45.816;3.104;2023-03-15T00:07:23;97943.66;;;5.86;79.05
61039;BME280;46919;45.816;3.104;2023-03-15T00:09:51;97937.63;;;5.77;79.30
61039;BME280;46919;45.816;3.104;2023-03-15T00:12:16;97940.31;;;5.77;79.24
61039;BME280;46919;45.816;3.104;2023-03-15T00:14:42;97943.66;;;5.65;79.58
61039;BME280;46919;45.816;3.104;2023-03-15T00:17:07;97939.22;;;5.50;80.49
61039;BME280;46919;45.816;3.104;2023-03-15T00:19:33;97946.63;;;5.48;80.67
61039;BME280;46919;45.816;3.104;2023-03-15T00:21:58;97951.53;;;5.44;80.92
61039;BME280;46919;45.816;3.104;2023-03-15T00:24:23;97951.72;;;5.43;80.87
61039;BME280;46919;45.816;3.104;2023-03-15T00:26:49;97952.22;;;5.53;81.10
61039;BME280;46919;45.816;3.104;2023-03-15T00:29:14;97948.47;;;5.48;81.18
61039;BME280;46919;45.816;3.104;2023-03-15T00:31:40;97952.72;;;5.42;80.99
61039;BME280;46919;45.816;3.104;2023-03-15T00:34:05;97955.16;;;5.37;81.62
61039;BME280;46919;45.816;3.104;2023-03-15T00:36:31;97945.25;;;5.37;81.86
61039;BME280;46919;45.816;3.104;2023-03-15T00:38:56;97955.53;;;5.34;81.80
61039;BME280;46919;45.816;3.104;2023-03-15T00:41:22;97945.81;;;5.33;82.16
61039;BME280;46919;45.816;3.104;2023-03-15T00:43:48;97945.94;;;5.24;82.09
61039;BME280;46919;45.816;3.104;2023-03-15T00:46:14;97944.78;;;5.12;83.13
61039;BME280;46919;45.816;3.104;2023-03-15T00:48:39;97951.09;;;5.04;83.98
61039;BME280;46919;45.816;3.104;2023-03-15T00:51:13;97960.06;;;4.97;84.35
61039;BME280;46919;45.816;3.104;2023-03-15T00:53:42;97964.69;;;4.88;85.04
61039;BME280;46919;45.816;3.104;2023-03-15T00:56:11;97964.97;;;4.78;85.66
61039;BME280;46919;45.816;3.104;2023-03-15T00:58:37;97968.31;;;4.65;86.56
61039;BME280;46919;45.816;3.104;2023-03-15T01:01:23;97970.41;;;4.55;87.35
61039;BME280;46919;45.816;3.104;2023-03-15T01:03:49;97968.97;;;4.52;87.09
61039;BME280;46919;45.816;3.104;2023-03-15T01:06:19;97963.97;;;4.49;87.15
61039;BME280;46919;45.816;3.104;2023-03-15T01:08:45;97963.88;;;4.43;87.61
61039;BME280;46919;45.816;3.104;2023-03-15T01:11:16;97969.88;;;4.30;88.26
61039;BME280;46919;45.816;3.104;2023-03-15T01:13:42;97963.19;;;4.11;88.87
61039;BME280;46919;45.816;3.104;2023-03-15T01:16:10;97962.25;;;4.04;89.46
61039;BME280;46919;45.816;3.104;2023-03-15T01:18:36;97964.38;;;3.93;89.53
61039;BME280;46919;45.816;3.104;2023-03-15T01:21:05;97960.56;;;3.88;89.81
61039;BME280;46919;45.816;3.104;2023-03-15T01:23:31;97962.94;;;3.83;90.44
61039;BME280;46919;45.816;3.104;2023-03-15T01:26:02;97957.78;;;3.81;90.74
61039;BME280;46919;45.816;3.104;2023-03-15T01:28:28;97956.28;;;3.78;91.17
61039;BME280;46919;45.816;3.104;2023-03-15T01:30:54;97968.28;;;3.83;91.47
61039;BME280;46919;45.816;3.104;2023-03-15T01:33:20;97966.53;;;3.90;91.99
61039;BME280;46919;45.816;3.104;2023-03-15T01:35:45;97962.50;;;3.94;91.62
61039;BME280;46919;45.816;3.104;2023-03-15T01:38:11;97965.13;;;4.17;91.56
61039;BME280;46919;45.816;3.104;2023-03-15T01:40:41;97962.75;;;4.37;90.48
61039;BME280;46919;45.816;3.104;2023-03-15T01:46:11;97962.69;;;4.60;90.16
61039;BME280;46919;45.816;3.104;2023-03-15T01:48:41;97963.13;;;4.64;90.42
61039;BME280;46919;45.816;3.104;2023-03-15T01:56:32;97964.44;;;4.68;90.86
61039;BME280;46919;45.816;3.104;2023-03-15T01:59:00;97951.63;;;4.63;90.98
61039;BME280;46919;45.816;3.104;2023-03-15T02:01:27;97950.69;;;4.56;90.95
61039;BME280;46919;45.816;3.104;2023-03-15T02:03:58;97946.50;;;4.53;90.70
61039;BME280;46919;45.816;3.104;2023-03-15T02:06:25;97937.22;;;4.49;90.82
61039;BME280;46919;45.816;3.104;2023-03-15T02:08:55;97939.63;;;4.44;91.09
61039;BME280;46919;45.816;3.104;2023-03-15T02:11:24;97938.03;;;4.35;91.15
61039;BME280;46919;45.816;3.104;2023-03-15T02:13:50;97944.31;;;4.27;92.12
61039;BME280;46919;45.816;3.104;2023-03-15T02:16:17;97939.78;;;4.28;92.05
61039;BME280;46919;45.816;3.104;2023-03-15T02:18:43;97953.34;;;4.26;92.62
61039;BME280;46919;45.816;3.104;2023-03-15T02:21:41;97948.66;;;4.28;92.55
61039;BME280;46919;45.816;3.104;2023-03-15T02:26:49;97950.84;;;4.25;92.51
61039;BME280;46919;45.816;3.104;2023-03-15T02:29:16;97947.44;;;4.31;92.41
61039;BME280;46919;45.816;3.104;2023-03-15T02:31:41;97951.88;;;4.39;91.62
61039;BME280;46919;45.816;3.104;2023-03-15T02:34:08;97943.28;;;4.43;91.58
61039;BME280;46919;45.816;3.104;2023-03-15T02:36:34;97931.22;;;4.47;91.39
61039;BME280;46919;45.816;3.104;2023-03-15T02:39:00;97938.66;;;4.52;91.50
61039;BME280;46919;45.816;3.104;2023-03-15T02:41:38;97940.59;;;4.58;91.21
61039;BME280;46919;45.816;3.104;2023-03-15T02:44:20;97936.28;;;4.57;91.15
61039;BME280;46919;45.816;3.104;2023-03-15T02:46:49;97926.41;;;4.58;91.35
61039;BME280;46919;45.816;3.104;2023-03-15T02:49:16;97922.72;;;4.59;91.52
61039;BME280;46919;45.816;3.104;2023-03-15T02:51:41;97922.81;;;4.50;92.00
61039;BME280;46919;45.816;3.104;2023-03-15T02:54:07;97912.38;;;4.41;92.79
61039;BME280;46919;45.816;3.104;2023-03-15T02:56:33;97923.63;;;4.36;93.35
61039;BME280;46919;45.816;3.104;2023-03-15T02:58:58;97917.09;;;4.39;93.24
61039;BME280;46919;45.816;3.104;2023-03-15T03:01:24;97908.25;;;4.38;93.14
61039;BME280;46919;45.816;3.104;2023-03-15T03:03:49;97914.97;;;4.34;93.78
61039;BME280;46919;45.816;3.104;2023-03-15T03:06:16;97920.41;;;4.26;94.20
61039;BME280;46919;45.816;3.104;2023-03-15T03:08:42;97914.59;;;4.22;94.96
61039;BME280;46919;45.816;3.104;2023-03-15T03:11:12;97909.63;;;4.19;95.05
61039;BME280;46919;45.816;3.104;2023-03-15T03:13:38;97910.53;;;4.11;95.73
61039;BME280;46919;45.816;3.104;2023-03-15T03:16:04;97920.28;;;4.04;96.27
61039;BME280;46919;45.816;3.104;2023-03-15T03:18:30;97925.81;;;4.03;96.80
61039;BME280;46919;45.816;3.104;2023-03-15T03:21:01;97925.00;;;4.02;97.07
61039;BME280;46919;45.816;3.104;2023-03-15T03:23:27;97925.34;;;3.99;97.31
61039;BME280;46919;45.816;3.104;2023-03-15T03:25:53;97922.50;;;4.01;97.98
61039;BME280;46919;45.816;3.104;2023-03-15T03:28:24;97922.50;;;4.01;97.99
61039;BME280;46919;45.816;3.104;2023-03-15T03:30:51;97925.72;;;3.96;98.33
61039;BME280;46919;45.816;3.104;2023-03-15T03:33:17;97924.44;;;3.92;98.15
61039;BME280;46919;45.816;3.104;2023-03-15T03:35:42;97918.59;;;3.88;98.80
61039;BME280;46919;45.816;3.104;2023-03-15T03:38:09;97918.50;;;3.81;99.05
61039;BME280;46919;45.816;3.104;2023-03-15T03:40:35;97916.53;;;3.75;99.68
61039;BME280;46919;45.816;3.104;2023-03-15T03:43:00;97916.25;;;3.70;100.00
61039;BME280;46919;45.816;3.104;2023-03-15T03:45:26;97917.97;;;3.63;100.00
61039;BME280;46919;45.816;3.104;2023-03-15T03:47:51;97914.19;;;3.57;100.00
61039;BME280;46919;45.816;3.104;2023-03-15T03:50:16;97910.88;;;3.55;100.00
61039;BME280;46919;45.816;3.104;2023-03-15T03:52:42;97926.25;;;3.53;100.00
61039;BME280;46919;45.816;3.104;2023-03-15T03:55:10;97916.41;;;3.54;100.00
61039;BME280;46919;45.816;3.104;2023-03-15T03:57:41;97913.72;;;3.54;100.00
61039;BME280;46919;45.816;3.104;2023-03-15T04:00:09;97911.78;;;3.48;100.00
61039;BME280;46919;45.816;3.104;2023-03-15T04:02:36;97914.13;;;3.42;100.00
61039;BME280;46919;45.816;3.104;2023-03-15T04:05:01;97913.19;;;3.35;100.00
61039;BME280;46919;45.816;3.104;2023-03-15T04:07:26;97910.59;;;3.27;100.00
61039;BME280;46919;45.816;3.104;2023-03-15T04:09:52;97897.59;;;3.24;100.00
61039;BME280;46919;45.816;3.104;2023-03-15T04:12:17;97901.78;;;3.18;100.00
61039;BME280;46919;45.816;3.104;2023-03-15T04:14:43;97909.34;;;3.15;100.00
61039;BME280;46919;45.816;3.104;2023-03-15T04:17:08;97914.56;;;3.08;100.00
61039;BME280;46919;45.816;3.104;2023-03-15T04:19:34;97923.38;;;3.08;100.00
61039;BME280;46919;45.816;3.104;2023-03-15T04:21:59;97915.25;;;3.02;100.00
61039;BME280;46919;45.816;3.104;2023-03-15T04:24:32;97918.78;;;2.94;100.00
61039;BME280;46919;45.816;3.104;2023-03-15T04:26:58;97918.97;;;2.93;100.00
61039;BME280;46919;45.816;3.104;2023-03-15T04:29:23;97921.81;;;2.91;100.00
61039;BME280;46919;45.816;3.104;2023-03-15T04:31:49;97921.81;;;2.91;100.00
61039;BME280;46919;45.816;3.104;2023-03-15T04:34:14;97916.13;;;2.94;100.00
61039;BME280;46919;45.816;3.104;2023-03-15T04:36:40;97920.13;;;2.98;100.00
61039;BME280;46919;45.816;3.104;2023-03-15T04:39:07;97923.44;;;3.00;100.00
61039;BME280;46919;45.816;3.104;2023-03-15T04:41:33;97933.47;;;2.98;100.00
61039;BME280;46919;45.816;3.104;2023-03-15T04:44:04;97931.09;;;3.03;100.00
61039;BME280;46919;45.816;3.104;2023-03-15T04:46:30;97934.59;;;3.04;100.00
61039;BME280;46919;45.816;3.104;2023-03-15T04:48:56;97944.91;;;3.07;100.00
61039;BME280;46919;45.816;3.104;2023-03-15T04:51:22;97944.41;;;3.12;100.00
61039;BME280;46919;45.816;3.104;2023-03-15T04:53:47;97956.41;;;3.16;100.00
61039;BME280;46919;45.816;3.104;2023-03-15T04:56:13;97957.69;;;3.20;100.00
61039;BME280;46919;45.816;3.104;2023-03-15T04:58:38;97951.19;;;3.22;100.00
61039;BME280;46919;45.816;3.104;2023-03-15T05:01:04;97952.66;;;3.25;100.00
61039;BME280;46919;45.816;3.104;2023-03-15T05:03:29;97950.94;;;3.32;100.00
61039;BME280;46919;45.816;3.104;2023-03-15T05:05:55;97958.78;;;3.34;100.00
61039;BME280;46919;45.816;3.104;2023-03-15T05:08:21;97952.63;;;3.33;100.00
61039;BME280;46919;45.816;3.104;2023-03-15T05:10:46;97958.59;;;3.35;100.00
61039;BME280;46919;45.816;3.104;2023-03-15T05:13:12;97952.56;;;3.41;100.00
61039;BME280;46919;45.816;3.104;2023-03-15T05:15:37;97957.72;;;3.43;100.00
61039;BME280;46919;45.816;3.104;2023-03-15T05:18:03;97965.06;;;3.41;100.00
61039;BME280;46919;45.816;3.104;2023-03-15T05:20:28;97954.88;;;3.44;100.00
61039;BME280;46919;45.816;3.104;2023-03-15T05:22:54;97953.22;;;3.43;100.00
61039;BME280;46919;45.816;3.104;2023-03-15T05:25:19;97953.22;;;3.43;100.00
61039;BME280;46919;45.816;3.104;2023-03-15T05:27:45;97951.88;;;3.39;100.00
61039;BME280;46919;45.816;3.104;2023-03-15T05:30:11;97952.28;;;3.36;100.00
61039;BME280;46919;45.816;3.104;2023-03-15T05:32:36;97963.78;;;3.37;100.00
61039;BME280;46919;45.816;3.104;2023-03-15T05:35:06;97971.31;;;3.33;100.00
61039;BME280;46919;45.816;3.104;2023-03-15T05:37:32;97961.16;;;3.29;100.00
61039;BME280;46919;45.816;3.104;2023-03-15T05:39:58;97975.03;;;3.24;100.00
61039;BME280;46919;45.816;3.104;2023-03-15T05:42:23;97972.72;;;3.21;100.00
61039;BME280;46919;45.816;3.104;2023-03-15T05:44:54;97981.91;;;3.18;100.00
61039;BME280;46919;45.816;3.104;2023-03-15T05:47:20;97980.63;;;3.14;100.00
61039;BME280;46919;45.816;3.104;2023-03-15T05:49:45;97977.78;;;3.07;100.00
61039;BME280;46919;45.816;3.104;2023-03-15T05:52:11;97965.84;;;2.95;100.00
61039;BME280;46919;45.816;3.104;2023-03-15T05:54:37;97977.41;;;2.87;100.00
61039;BME280;46919;45.816;3.104;2023-03-15T05:57:03;97981.88;;;2.87;100.00
61039;BME280;46919;45.816;3.104;2023-03-15T05:59:28;97991.44;;;2.81;100.00
61039;BME280;46919;45.816;3.104;2023-03-15T06:01:54;97988.28;;;2.69;100.00
61039;BME280;46919;45.816;3.104;2023-03-15T06:04:20;97991.97;;;2.68;100.00
61039;BME280;46919;45.816;3.104;2023-03-15T06:06:45;97999.69;;;2.63;100.00
61039;BME280;46919;45.816;3.104;2023-03-15T06:09:11;97996.66;;;2.58;100.00
61039;BME280;46919;45.816;3.104;2023-03-15T06:11:37;97995.03;;;2.57;100.00
61039;BME280;46919;45.816;3.104;2023-03-15T06:14:02;97997.00;;;2.55;100.00
61039;BME280;46919;45.816;3.104;2023-03-15T06:16:28;97986.69;;;2.52;100.00
61039;BME280;46919;45.816;3.104;2023-03-15T06:18:53;97986.00;;;2.58;100.00
61039;BME280;46919;45.816;3.104;2023-03-15T06:21:19;97994.69;;;2.60;100.00
61039;BME280;46919;45.816;3.104;2023-03-15T06:23:44;97989.34;;;2.60;100.00
61039;BME280;46919;45.816;3.104;2023-03-15T06:26:10;97985.78;;;2.68;100.00
61039;BME280;46919;45.816;3.104;2023-03-15T06:28:35;97996.28;;;2.78;100.00
61039;BME280;46919;45.816;3.104;2023-03-15T06:31:09;97991.25;;;2.83;100.00
61039;BME280;46919;45.816;3.104;2023-03-15T06:33:35;97997.03;;;2.95;100.00
61039;BME280;46919;45.816;3.104;2023-03-15T06:36:01;98005.84;;;3.03;100.00
61039;BME280;46919;45.816;3.104;2023-03-15T06:38:26;98013.88;;;3.03;100.00
61039;BME280;46919;45.816;3.104;2023-03-15T06:40:52;98024.19;;;3.06;100.00
61039;BME280;46919;45.816;3.104;2023-03-15T06:43:17;98027.47;;;3.17;100.00
61039;BME280;46919;45.816;3.104;2023-03-15T06:45:46;98028.34;;;3.17;100.00
61039;BME280;46919;45.816;3.104;2023-03-15T06:48:12;98030.47;;;3.22;100.00
61039;BME280;46919;45.816;3.104;2023-03-15T06:50:38;98031.25;;;3.31;100.00
61039;BME280;46919;45.816;3.104;2023-03-15T06:53:04;98030.38;;;3.38;100.00
61039;BME280;46919;45.816;3.104;2023-03-15T06:55:29;98021.69;;;3.44;100.00
61039;BME280;46919;45.816;3.104;2023-03-15T06:57:55;98021.63;;;3.53;100.00
61039;BME280;46919;45.816;3.104;2023-03-15T07:00:20;98018.25;;;3.59;100.00
61039;BME280;46919;45.816;3.104;2023-03-15T07:02:47;98031.25;;;3.62;100.00
61039;BME280;46919;45.816;3.104;2023-03-15T07:05:12;98031.25;;;3.62;100.00
61039;BME280;46919;45.816;3.104;2023-03-15T07:07:37;98030.91;;;3.65;100.00
61039;BME280;46919;45.816;3.104;2023-03-15T07:10:03;98027.88;;;3.68;100.00
61039;BME280;46919;45.816;3.104;2023-03-15T07:12:29;98026.03;;;3.69;100.00
61039;BME280;46919;45.816;3.104;2023-03-15T07:14:54;98033.53;;;3.73;100.00
61039;BME280;46919;45.816;3.104;2023-03-15T07:17:20;98032.34;;;3.76;100.00
61039;BME280;46919;45.816;3.104;2023-03-15T07:19:45;98034.44;;;3.80;100.00
61039;BME280;46919;45.816;3.104;2023-03-15T07:22:10;98036.41;;;3.87;100.00
61039;BME280;46919;45.816;3.104;2023-03-15T07:24:36;98042.91;;;3.92;100.00
61039;BME280;46919;45.816;3.104;2023-03-15T07:27:01;98039.34;;;4.00;100.00
61039;BME280;46919;45.816;3.104;2023-03-15T07:29:27;98041.78;;;4.10;100.00
61039;BME280;46919;45.816;3.104;2023-03-15T07:31:52;98049.53;;;4.20;100.00
61039;BME280;46919;45.816;3.104;2023-03-15T07:34:18;98044.78;;;4.30;100.00
61039;BME280;46919;45.816;3.104;2023-03-15T07:36:43;98055.59;;;4.37;100.00
61039;BME280;46919;45.816;3.104;2023-03-15T07:39:09;98052.00;;;4.44;100.00
61039;BME280;46919;45.816;3.104;2023-03-15T07:41:34;98053.75;;;4.52;100.00
61039;BME280;46919;45.816;3.104;2023-03-15T07:44:00;98060.16;;;4.66;100.00
61039;BME280;46919;45.816;3.104;2023-03-15T07:46:25;98060.44;;;4.71;100.00
61039;BME280;46919;45.816;3.104;2023-03-15T07:48:50;98060.38;;;4.79;100.00
61039;BME280;46919;45.816;3.104;2023-03-15T07:51:16;98064.22;;;4.92;100.00
61039;BME280;46919;45.816;3.104;2023-03-15T07:53:41;98069.34;;;5.01;99.63
61039;BME280;46919;45.816;3.104;2023-03-15T07:56:07;98063.50;;;4.98;99.46
61039;BME280;46919;45.816;3.104;2023-03-15T07:58:32;98067.75;;;5.07;99.08
61039;BME280;46919;45.816;3.104;2023-03-15T08:00:58;98077.34;;;5.16;98.65
61039;BME280;46919;45.816;3.104;2023-03-15T08:03:24;98077.63;;;5.21;98.30
61039;BME280;46919;45.816;3.104;2023-03-15T08:05:51;98077.91;;;5.26;97.28
61039;BME280;46919;45.816;3.104;2023-03-15T08:08:16;98077.91;;;5.26;96.73
61039;BME280;46919;45.816;3.104;2023-03-15T08:10:43;98080.88;;;5.32;95.83
61039;BME280;46919;45.816;3.104;2023-03-15T08:13:09;98077.69;;;5.43;95.41
61039;BME280;46919;45.816;3.104;2023-03-15T08:15:35;98079.44;;;5.51;94.68
61039;BME280;46919;45.816;3.104;2023-03-15T08:18:01;98081.56;;;5.55;93.67
61039;BME280;46919;45.816;3.104;2023-03-15T08:20:27;98084.03;;;5.72;93.71
61039;BME280;46919;45.816;3.104;2023-03-15T08:22:52;98085.81;;;5.86;92.74
61039;BME280;46919;45.816;3.104;2023-03-15T08:25:20;98085.84;;;6.01;91.98
61039;BME280;46919;45.816;3.104;2023-03-15T08:27:46;98088.00;;;6.12;91.57
61039;BME280;46919;45.816;3.104;2023-03-15T08:30:13;98089.78;;;6.27;91.36
61039;BME280;46919;45.816;3.104;2023-03-15T08:32:40;98083.66;;;6.33;91.19
61039;BME280;46919;45.816;3.104;2023-03-15T08:35:08;98102.50;;;6.40;91.03
61039;BME280;46919;45.816;3.104;2023-03-15T08:37:34;98096.59;;;6.51;90.69
61039;BME280;46919;45.816;3.104;2023-03-15T08:39:59;98099.53;;;6.56;90.57
61039;BME280;46919;45.816;3.104;2023-03-15T08:42:31;98100.69;;;6.47;90.78
61039;BME280;46919;45.816;3.104;2023-03-15T08:44:56;98103.75;;;6.65;90.23
61039;BME280;46919;45.816;3.104;2023-03-15T08:47:24;98096.44;;;6.81;89.17
61039;BME280;46919;45.816;3.104;2023-03-15T08:49:50;98099.78;;;6.89;88.68
61039;BME280;46919;45.816;3.104;2023-03-15T08:52:18;98104.81;;;6.99;87.79
61039;BME280;46919;45.816;3.104;2023-03-15T08:54:43;98110.28;;;7.13;86.40
61039;BME280;46919;45.816;3.104;2023-03-15T08:57:08;98106.25;;;7.30;85.84
61039;BME280;46919;45.816;3.104;2023-03-15T08:59:34;98104.34;;;7.24;85.43
61039;BME280;46919;45.816;3.104;2023-03-15T09:02:00;98111.00;;;7.28;85.60
61039;BME280;46919;45.816;3.104;2023-03-15T09:04:26;98110.44;;;7.39;84.07
61039;BME280;46919;45.816;3.104;2023-03-15T09:06:51;98111.69;;;7.43;84.07
61039;BME280;46919;45.816;3.104;2023-03-15T09:09:17;98107.78;;;7.46;83.68
61039;BME280;46919;45.816;3.104;2023-03-15T09:11:43;98107.47;;;7.69;83.18
61039;BME280;46919;45.816;3.104;2023-03-15T09:14:08;98106.28;;;7.85;82.99
61039;BME280;46919;45.816;3.104;2023-03-15T09:16:34;98111.50;;;7.93;82.86
61039;BME280;46919;45.816;3.104;2023-03-15T09:18:59;98104.03;;;8.02;82.26
61039;BME280;46919;45.816;3.104;2023-03-15T09:21:25;98098.25;;;8.05;82.01
61039;BME280;46919;45.816;3.104;2023-03-15T09:23:52;98103.03;;;8.03;80.29
61039;BME280;46919;45.816;3.104;2023-03-15T09:26:17;98099.72;;;8.14;79.78
61039;BME280;46919;45.816;3.104;2023-03-15T09:28:42;98102.22;;;8.16;78.52
61039;BME280;46919;45.816;3.104;2023-03-15T09:31:08;98096.63;;;8.18;78.72
61039;BME280;46919;45.816;3.104;2023-03-15T09:33:34;98101.22;;;8.37;78.42
61039;BME280;46919;45.816;3.104;2023-03-15T09:35:59;98102.13;;;8.64;77.34
61039;BME280;46919;45.816;3.104;2023-03-15T09:38:25;98099.81;;;8.68;75.70
61039;BME280;46919;45.816;3.104;2023-03-15T09:40:55;98100.44;;;8.70;74.28
61039;BME280;46919;45.816;3.104;2023-03-15T09:54:00;98085.66;;;9.19;72.85
61039;BME280;46919;45.816;3.104;2023-03-15T09:56:34;98095.41;;;9.07;71.04
61039;BME280;46919;45.816;3.104;2023-03-15T09:59:01;98085.06;;;9.11;71.57
61039;BME280;46919;45.816;3.104;2023-03-15T10:01:38;98086.44;;;9.40;70.96
61039;BME280;46919;45.816;3.104;2023-03-15T10:06:36;98089.47;;;10.02;68.74
61039;BME280;46919;45.816;3.104;2023-03-15T10:09:10;98085.63;;;9.91;67.58
61039;BME280;46919;45.816;3.104;2023-03-15T10:11:58;98084.50;;;10.06;66.04
61039;BME280;46919;45.816;3.104;2023-03-15T10:14:57;98079.94;;;10.00;61.08
61039;BME280;46919;45.816;3.104;2023-03-15T10:17:53;98078.53;;;9.90;60.74
61039;BME280;46919;45.816;3.104;2023-03-15T10:20:35;98086.34;;;9.67;65.39
61039;BME280;46919;45.816;3.104;2023-03-15T10:25:35;98077.38;;;9.14;63.13
61039;BME280;46919;45.816;3.104;2023-03-15T10:30:37;98080.13;;;8.81;63.97
61039;BME280;46919;45.816;3.104;2023-03-15T10:35:31;98077.88;;;9.50;62.04
61039;BME280;46919;45.816;3.104;2023-03-15T10:37:57;98075.25;;;9.88;61.89
61039;BME280;46919;45.816;3.104;2023-03-15T10:40:54;98069.84;;;10.20;59.55
61039;BME280;46919;45.816;3.104;2023-03-15T10:46:22;98075.56;;;10.69;61.11
61039;BME280;46919;45.816;3.104;2023-03-15T10:56:26;98076.00;;;11.10;57.99
61039;BME280;46919;45.816;3.104;2023-03-15T10:58:56;98069.25;;;11.19;57.41
61039;BME280;46919;45.816;3.104;2023-03-15T11:01:25;98058.50;;;11.49;56.33
61039;BME280;46919;45.816;3.104;2023-03-15T11:04:22;98061.50;;;11.22;53.84
61039;BME280;46919;45.816;3.104;2023-03-15T11:07:00;98068.19;;;11.38;54.75
61039;BME280;46919;45.816;3.104;2023-03-15T11:09:40;98074.59;;;11.07;56.12
61039;BME280;46919;45.816;3.104;2023-03-15T11:12:15;98062.63;;;11.15;54.34
61039;BME280;46919;45.816;3.104;2023-03-15T11:14:44;98072.78;;;11.01;55.85
61039;BME280;46919;45.816;3.104;2023-03-15T11:17:20;98068.63;;;10.98;55.56
61039;BME280;46919;45.816;3.104;2023-03-15T11:20:06;98050.69;;;11.04;52.66
61039;BME280;46919;45.816;3.104;2023-03-15T11:22:41;98056.03;;;11.11;54.52
61039;BME280;46919;45.816;3.104;2023-03-15T11:25:16;98053.03;;;11.19;55.07
61039;BME280;46919;45.816;3.104;2023-03-15T11:27:43;98046.84;;;11.49;54.43
61039;BME280;46919;45.816;3.104;2023-03-15T11:30:16;98049.72;;;11.84;52.91
61039;BME280;46919;45.816;3.104;2023-03-15T11:32:43;98041.47;;;11.98;52.71
61039;BME280;46919;45.816;3.104;2023-03-15T11:35:37;98034.84;;;11.75;51.91
61039;BME280;46919;45.816;3.104;2023-03-15T11:38:04;98030.03;;;11.95;49.66
61039;BME280;46919;45.816;3.104;2023-03-15T11:40:42;98035.16;;;12.16;50.68
61039;BME280;46919;45.816;3.104;2023-03-15T11:43:18;98022.44;;;12.16;49.37
61039;BME280;46919;45.816;3.104;2023-03-15T11:46:07;98025.13;;;12.04;50.43
61039;BME280;46919;45.816;3.104;2023-03-15T11:48:56;98024.72;;;12.31;48.88
61039;BME280;46919;45.816;3.104;2023-03-15T11:51:23;98022.03;;;12.55;51.32
61039;BME280;46919;45.816;3.104;2023-03-15T12:01:36;98020.38;;;12.89;49.00
61039;BME280;46919;45.816;3.104;2023-03-15T12:11:59;98000.06;;;12.21;49.80
61039;BME280;46919;45.816;3.104;2023-03-15T12:14:30;97999.00;;;12.22;50.81
61039;BME280;46919;45.816;3.104;2023-03-15T12:25:55;98009.38;;;14.63;48.30
61039;BME280;46919;45.816;3.104;2023-03-15T12:28:51;98003.59;;;14.77;48.80
61039;BME280;46919;45.816;3.104;2023-03-15T12:31:26;97999.78;;;14.95;49.56
61039;BME280;46919;45.816;3.104;2023-03-15T12:34:13;97994.81;;;15.31;47.39
61039;BME280;46919;45.816;3.104;2023-03-15T12:36:41;97987.25;;;15.16;46.32
61039;BME280;46919;45.816;3.104;2023-03-15T12:41:40;97989.69;;;15.34;47.95
61039;BME280;46919;45.816;3.104;2023-03-15T12:47:01;97994.78;;;15.97;43.60
61039;BME280;46919;45.816;3.104;2023-03-15T12:49:30;97993.78;;;15.81;46.06
61039;BME280;46919;45.816;3.104;2023-03-15T12:54:29;97987.78;;;15.35;42.84
61039;BME280;46919;45.816;3.104;2023-03-15T12:56:57;97978.31;;;13.97;40.51
61039;BME280;46919;45.816;3.104;2023-03-15T12:59:40;97983.53;;;13.69;44.68
61039;BME280;46919;45.816;3.104;2023-03-15T13:02:22;97970.84;;;14.21;44.52
61039;BME280;46919;45.816;3.104;2023-03-15T13:04:48;97969.53;;;14.57;44.17
61039;BME280;46919;45.816;3.104;2023-03-15T13:07:23;97964.03;;;15.30;43.90
61039;BME280;46919;45.816;3.104;2023-03-15T13:10:15;97941.19;;;15.81;39.19
61039;BME280;46919;45.816;3.104;2023-03-15T13:12:50;97950.06;;;15.98;42.68
61039;BME280;46919;45.816;3.104;2023-03-15T13:15:30;97943.03;;;16.40;41.75
61039;BME280;46919;45.816;3.104;2023-03-15T13:18:03;97948.44;;;16.29;39.07
61039;BME280;46919;45.816;3.104;2023-03-15T13:20:44;97937.25;;;15.71;38.93
61039;BME280;46919;45.816;3.104;2023-03-15T13:23:19;97940.16;;;16.19;42.20
61039;BME280;46919;45.816;3.104;2023-03-15T13:25:51;97934.03;;;16.34;41.31
61039;BME280;46919;45.816;3.104;2023-03-15T13:28:23;97936.34;;;16.95;41.59
61039;BME280;46919;45.816;3.104;2023-03-15T13:30:55;97923.38;;;17.33;41.29
61039;BME280;46919;45.816;3.104;2023-03-15T13:33:27;97925.84;;;17.30;40.69
61039;BME280;46919;45.816;3.104;2023-03-15T13:35:59;97915.31;;;16.91;39.26
61039;BME280;46919;45.816;3.104;2023-03-15T13:38:37;97920.63;;;16.70;39.09
61039;BME280;46919;45.816;3.104;2023-03-15T13:41:13;97932.38;;;16.33;40.69
61039;BME280;46919;45.816;3.104;2023-03-15T13:43:39;97922.31;;;16.34;40.52
61039;BME280;46919;45.816;3.104;2023-03-15T13:46:06;97918.06;;;16.53;39.21
61039;BME280;46919;45.816;3.104;2023-03-15T13:48:34;97908.56;;;16.61;39.11
61039;BME280;46919;45.816;3.104;2023-03-15T13:51:04;97910.44;;;16.18;39.62
61039;BME280;46919;45.816;3.104;2023-03-15T13:53:33;97903.56;;;16.10;39.73
61039;BME280;46919;45.816;3.104;2023-03-15T13:56:00;97902.22;;;15.80;40.01
61039;BME280;46919;45.816;3.104;2023-03-15T13:58:26;97902.31;;;15.90;39.71
61039;BME280;46919;45.816;3.104;2023-03-15T14:00:57;97899.09;;;15.71;38.92
61039;BME280;46919;45.816;3.104;2023-03-15T14:03:23;97908.44;;;15.26;39.87
61039;BME280;46919;45.816;3.104;2023-03-15T14:05:51;97901.84;;;15.22;39.68
61039;BME280;46919;45.816;3.104;2023-03-15T14:08:26;97904.88;;;15.26;39.73
61039;BME280;46919;45.816;3.104;2023-03-15T14:16:03;97893.06;;;14.93;39.16
61039;BME280;46919;45.816;3.104;2023-03-15T14:18:34;97892.81;;;14.94;39.17
61039;BME280;46919;45.816;3.104;2023-03-15T14:21:11;97892.75;;;14.89;39.65
61039;BME280;46919;45.816;3.104;2023-03-15T14:23:41;97890.22;;;15.04;39.15
61039;BME280;46919;45.816;3.104;2023-03-15T14:26:18;97897.84;;;14.63;39.81
61039;BME280;46919;45.816;3.104;2023-03-15T14:28:58;97901.59;;;14.79;40.40
61039;BME280;46919;45.816;3.104;2023-03-15T14:31:29;97906.09;;;14.91;39.25